Time;durP1;ratioP1;P1;durP2;ratioP2;P2;SDS_P1;SDS_P2;PMS_P1;PMS_P2;Temp;Humidity;BMP_temperature;BMP_pressure;BME280_temperature;BME280_humidity;BME280_pressure;Samples;Min_cycle;Max_cycle;Signal;HPM_P1;HPM_P2
2022/08/07 00:01:12;;;;;;;4.25;3.95;;;;;;;;;;5041137;28;20017;-58
2022/08/07 00:03:37;;;;;;;5.53;5.03;;;;;;;;;;5045891;28;20489;-59
2022/08/07 00:06:04;;;;;;;5.65;5.25;;;;;;;;;;5043184;28;20642;-58
2022/08/07 00:08:29;;;;;;;5.43;5.03;;;;;;;;;;5046864;28;20059;-59
2022/08/07 00:10:55;;;;;;;5.32;4.93;;;;;;;;;;5040912;28;20476;-58
2022/08/07 00:13:21;;;;;;;5.15;4.30;;;;;;;;;;5044498;28;20029;-58
2022/08/07 00:15:48;;;;;;;5.20;4.80;;;;;;;;;;5044556;28;20112;-59
2022/08/07 00:18:19;;;;;;;4.82;4.43;;;;;;;;;;5046895;28;20120;-58
2022/08/07 00:20:44;;;;;;;4.70;4.30;;;;;;;;;;5046219;28;20121;-59
2022/08/07 00:23:09;;;;;;;4.85;4.45;;;;;;;;;;5044242;28;20329;-59
2022/08/07 00:25:35;;;;;;;4.70;4.30;;;;;;;;;;5045255;28;20355;-59
2022/08/07 00:28:01;;;;;;;5.18;4.78;;;;;;;;;;5043840;28;20537;-59
2022/08/07 00:30:28;;;;;;;4.85;4.45;;;;;;;;;;5044200;28;20036;-59
2022/08/07 00:32:58;;;;;;;4.82;4.43;;;;;;;;;;5042296;28;20412;-60
2022/08/07 00:35:23;;;;;;;4.70;4.30;;;;;;;;;;5039344;28;20035;-60
2022/08/07 00:37:49;;;;;;;5.15;4.75;;;;;;;;;;5043427;28;20280;-60
2022/08/07 00:40:14;;;;;;;5.40;5.00;;;;;;;;;;5045287;28;20458;-60
2022/08/07 00:42:40;;;;;;;5.15;4.75;;;;;;;;;;5042625;28;20048;-60
2022/08/07 00:45:07;;;;;;;4.65;4.25;;;;;;;;;;5036959;28;20037;-60
2022/08/07 00:47:32;;;;;;;4.80;4.40;;;;;;;;;;5044776;28;20025;-60
2022/08/07 00:49:57;;;;;;;4.70;4.30;;;;;;;;;;5047338;28;20037;-60
2022/08/07 00:52:23;;;;;;;4.70;4.30;;;;;;;;;;5045141;28;20037;-60
2022/08/07 00:54:48;;;;;;;4.80;4.40;;;;;;;;;;5044007;28;20107;-60
2022/08/07 00:57:16;;;;;;;4.93;4.53;;;;;;;;;;5039846;28;20091;-60
2022/08/07 00:59:41;;;;;;;5.28;4.88;;;;;;;;;;5041038;28;20120;-60
2022/08/07 01:02:08;;;;;;;4.90;4.50;;;;;;;;;;5038575;28;20426;-60
2022/08/07 01:04:33;;;;;;;4.60;4.20;;;;;;;;;;5044767;28;20064;-60
2022/08/07 01:07:00;;;;;;;5.13;4.72;;;;;;;;;;5046938;28;20063;-59
2022/08/07 01:09:26;;;;;;;7.72;4.88;;;;;;;;;;5045315;28;20378;-59
2022/08/07 01:11:52;;;;;;;5.35;4.95;;;;;;;;;;5046810;28;20033;-59
2022/08/07 01:14:19;;;;;;;5.15;4.75;;;;;;;;;;5044892;28;20074;-59
2022/08/07 01:16:44;;;;;;;5.05;4.65;;;;;;;;;;5054047;28;20118;-59
2022/08/07 01:19:10;;;;;;;4.57;4.20;;;;;;;;;;5038999;28;20041;-59
2022/08/07 01:21:36;;;;;;;5.05;4.65;;;;;;;;;;5044363;28;20181;-59
2022/08/07 01:24:02;;;;;;;4.70;4.30;;;;;;;;;;5043666;28;20398;-59
2022/08/07 01:26:29;;;;;;;4.57;4.20;;;;;;;;;;5042561;28;20017;-59
2022/08/07 01:28:55;;;;;;;4.50;4.10;;;;;;;;;;5040982;28;20033;-59
2022/08/07 01:31:26;;;;;;;4.72;4.35;;;;;;;;;;5042516;28;20105;-59
2022/08/07 01:33:52;;;;;;;5.20;4.80;;;;;;;;;;5040293;28;20044;-59
2022/08/07 01:36:18;;;;;;;4.63;4.22;;;;;;;;;;5043232;28;20054;-59
2022/08/07 01:38:44;;;;;;;4.80;4.40;;;;;;;;;;5043042;28;20029;-59
2022/08/07 01:41:10;;;;;;;5.72;5.32;;;;;;;;;;5035911;28;20037;-59
2022/08/07 01:43:36;;;;;;;5.40;5.00;;;;;;;;;;5044435;28;20076;-59
2022/08/07 01:46:02;;;;;;;4.97;4.57;;;;;;;;;;5045310;28;20067;-59
2022/08/07 01:48:27;;;;;;;4.40;4.10;;;;;;;;;;5041417;28;20036;-59
2022/08/07 01:50:58;;;;;;;5.18;4.78;;;;;;;;;;5039263;28;20045;-59
2022/08/07 01:53:27;;;;;;;4.85;4.45;;;;;;;;;;5044206;28;20024;-58
2022/08/07 01:55:57;;;;;;;5.03;4.63;;;;;;;;;;5040466;28;20033;-59
2022/08/07 01:58:27;;;;;;;5.40;5.00;;;;;;;;;;5041947;28;20102;-58
2022/08/07 02:01:00;;;;;;;4.40;4.10;;;;;;;;;;5041686;28;20703;-59
2022/08/07 02:03:28;;;;;;;4.95;4.55;;;;;;;;;;5041471;28;20067;-58
2022/08/07 02:05:58;;;;;;;4.60;4.20;;;;;;;;;;5040928;28;20037;-59
2022/08/07 02:08:25;;;;;;;4.90;4.50;;;;;;;;;;5040705;28;20024;-58
2022/08/07 02:10:53;;;;;;;5.00;4.60;;;;;;;;;;5041864;28;20028;-59
2022/08/07 02:13:28;;;;;;;4.90;4.50;;;;;;;;;;5038390;28;20021;-58
2022/08/07 02:15:56;;;;;;;4.93;4.53;;;;;;;;;;5037362;28;20090;-58
2022/08/07 02:18:22;;;;;;;5.05;4.65;;;;;;;;;;5038747;28;20025;-59
2022/08/07 02:20:50;;;;;;;5.03;4.63;;;;;;;;;;5039014;28;20454;-59
2022/08/07 02:23:17;;;;;;;5.07;4.60;;;;;;;;;;5037716;28;20120;-58
2022/08/07 02:25:43;;;;;;;5.05;4.65;;;;;;;;;;5042720;28;20645;-59
2022/08/07 02:28:10;;;;;;;4.75;4.35;;;;;;;;;;5042056;28;20084;-59
2022/08/07 02:30:38;;;;;;;4.60;4.20;;;;;;;;;;5041856;28;20047;-59
2022/08/07 02:33:05;;;;;;;5.35;4.95;;;;;;;;;;5036981;28;20036;-58
2022/08/07 02:35:33;;;;;;;5.15;4.75;;;;;;;;;;5040443;28;20164;-58
2022/08/07 02:38:01;;;;;;;4.63;4.22;;;;;;;;;;5039693;28;20108;-59
2022/08/07 02:40:28;;;;;;;5.03;4.63;;;;;;;;;;5041457;28;20048;-59
2022/08/07 02:42:54;;;;;;;4.95;4.55;;;;;;;;;;5042583;28;20025;-58
2022/08/07 02:45:22;;;;;;;5.13;4.72;;;;;;;;;;5038730;28;20550;-58
2022/08/07 02:47:47;;;;;;;5.57;5.18;;;;;;;;;;5038399;28;20502;-59
2022/08/07 02:50:13;;;;;;;4.40;4.10;;;;;;;;;;5032543;28;20040;-58
2022/08/07 02:52:51;;;;;;;4.70;4.30;;;;;;;;;;5038705;28;20252;-59
2022/08/07 02:55:20;;;;;;;5.55;5.15;;;;;;;;;;5036945;28;20040;-59
2022/08/07 02:57:47;;;;;;;4.82;4.43;;;;;;;;;;5042514;28;20125;-58
2022/08/07 03:00:14;;;;;;;5.13;4.72;;;;;;;;;;5039851;28;20049;-59
2022/08/07 03:02:44;;;;;;;4.78;4.38;;;;;;;;;;5041386;28;20522;-58
2022/08/07 03:05:10;;;;;;;4.57;4.18;;;;;;;;;;5040556;28;20044;-59
2022/08/07 03:07:37;;;;;;;5.18;4.78;;;;;;;;;;5041128;28;20531;-59
2022/08/07 03:10:04;;;;;;;5.07;4.68;;;;;;;;;;5042896;28;20022;-58
2022/08/07 03:12:31;;;;;;;5.03;4.63;;;;;;;;;;5044262;28;20045;-59
2022/08/07 03:14:57;;;;;;;5.15;4.75;;;;;;;;;;5040619;28;20036;-59
2022/08/07 03:17:23;;;;;;;5.20;4.80;;;;;;;;;;5049502;28;20164;-58
2022/08/07 03:19:49;;;;;;;5.13;4.72;;;;;;;;;;5046484;28;20044;-59
2022/08/07 03:22:16;;;;;;;5.20;4.80;;;;;;;;;;5043952;28;20571;-58
2022/08/07 03:24:41;;;;;;;5.20;4.80;;;;;;;;;;5043608;28;20029;-58
2022/08/07 03:27:07;;;;;;;5.63;5.22;;;;;;;;;;5044689;28;20031;-58
2022/08/07 03:29:37;;;;;;;4.97;4.57;;;;;;;;;;5042572;28;20025;-58
2022/08/07 03:32:05;;;;;;;4.78;4.38;;;;;;;;;;5045574;28;20049;-58
2022/08/07 03:34:33;;;;;;;5.20;4.80;;;;;;;;;;5052987;28;20048;-58
2022/08/07 03:37:00;;;;;;;5.25;4.85;;;;;;;;;;5045894;28;20411;-58
2022/08/07 03:39:28;;;;;;;5.53;5.13;;;;;;;;;;5047651;28;20040;-58
2022/08/07 03:41:53;;;;;;;5.13;4.72;;;;;;;;;;5044184;28;20560;-58
2022/08/07 03:44:19;;;;;;;5.38;4.97;;;;;;;;;;5044322;28;20101;-59
2022/08/07 03:46:45;;;;;;;5.00;4.60;;;;;;;;;;5042108;28;20021;-58
2022/08/07 03:49:10;;;;;;;5.13;4.72;;;;;;;;;;5048369;28;20140;-58
2022/08/07 03:51:36;;;;;;;5.05;4.65;;;;;;;;;;5046798;28;20460;-59
2022/08/07 03:54:03;;;;;;;4.80;4.40;;;;;;;;;;5041389;28;20127;-58
2022/08/07 03:56:32;;;;;;;5.47;5.07;;;;;;;;;;5041727;28;20066;-58
2022/08/07 03:58:57;;;;;;;5.57;5.18;;;;;;;;;;5044493;28;20112;-59
2022/08/07 04:01:25;;;;;;;4.95;4.55;;;;;;;;;;5044252;28;20115;-58
2022/08/07 04:03:50;;;;;;;5.13;4.72;;;;;;;;;;5042221;28;20041;-58
2022/08/07 04:06:15;;;;;;;5.32;4.93;;;;;;;;;;5047941;28;20025;-58
2022/08/07 04:08:41;;;;;;;5.50;5.10;;;;;;;;;;5045501;28;20039;-59
2022/08/07 04:11:10;;;;;;;5.13;4.72;;;;;;;;;;5044523;28;20375;-58
2022/08/07 04:13:36;;;;;;;4.43;4.10;;;;;;;;;;5044876;28;20053;-59
2022/08/07 04:16:02;;;;;;;5.00;4.60;;;;;;;;;;5043893;28;20021;-58
2022/08/07 04:18:27;;;;;;;5.05;4.65;;;;;;;;;;5046210;28;20541;-58
2022/08/07 04:20:52;;;;;;;4.53;4.18;;;;;;;;;;5043260;28;20055;-58
2022/08/07 04:23:19;;;;;;;4.82;4.43;;;;;;;;;;5040435;28;20052;-58
2022/08/07 04:25:44;;;;;;;5.70;5.20;;;;;;;;;;5041566;28;20374;-58
2022/08/07 04:28:11;;;;;;;5.20;4.72;;;;;;;;;;5037673;28;20109;-58
2022/08/07 04:30:37;;;;;;;4.63;4.22;;;;;;;;;;5037760;28;20048;-58
2022/08/07 04:33:07;;;;;;;5.15;4.75;;;;;;;;;;5044117;28;20033;-58
2022/08/07 04:35:35;;;;;;;5.03;4.63;;;;;;;;;;5043475;28;20036;-58
2022/08/07 04:38:06;;;;;;;5.25;4.85;;;;;;;;;;5043520;28;20551;-58
2022/08/07 04:40:32;;;;;;;4.70;4.30;;;;;;;;;;5044088;28;20117;-58
2022/08/07 04:42:58;;;;;;;5.05;4.65;;;;;;;;;;5043360;28;20453;-58
2022/08/07 04:45:28;;;;;;;5.80;5.40;;;;;;;;;;5042480;28;20021;-58
2022/08/07 04:48:06;;;;;;;5.28;4.88;;;;;;;;;;5042322;28;20395;-58
2022/08/07 04:50:44;;;;;;;4.88;4.47;;;;;;;;;;5049505;28;20044;-58
2022/08/07 04:53:30;;;;;;;5.18;4.78;;;;;;;;;;5038115;28;20067;-58
2022/08/07 04:55:59;;;;;;;6.43;6.03;;;;;;;;;;5041997;28;20549;-58
2022/08/07 04:58:40;;;;;;;5.40;5.00;;;;;;;;;;5042608;28;20061;-58
2022/08/07 05:01:19;;;;;;;5.43;5.03;;;;;;;;;;5041426;28;20139;-58
2022/08/07 05:03:50;;;;;;;5.05;4.65;;;;;;;;;;5044140;28;20417;-58
2022/08/07 05:06:22;;;;;;;;;;;;;;;;;;5045346;28;20075;-58
2022/08/07 05:09:02;;;;;;;5.32;4.93;;;;;;;;;;5043960;28;19923;-58
2022/08/07 05:11:31;;;;;;;5.05;4.65;;;;;;;;;;5040191;28;20029;-58
2022/08/07 05:14:00;;;;;;;4.68;4.25;;;;;;;;;;5041453;28;20033;-58
2022/08/07 05:16:29;;;;;;;4.88;4.47;;;;;;;;;;5040477;28;20041;-57
2022/08/07 05:18:59;;;;;;;5.03;4.63;;;;;;;;;;5040784;28;20059;-58
2022/08/07 05:21:26;;;;;;;5.15;4.75;;;;;;;;;;5042000;28;20021;-58
2022/08/07 05:24:15;;;;;;;5.95;5.55;;;;;;;;;;5041561;28;20060;-58
2022/08/07 05:26:42;;;;;;;4.90;4.50;;;;;;;;;;5042022;28;20124;-58
2022/08/07 05:29:09;;;;;;;4.72;4.32;;;;;;;;;;5039380;28;20458;-58
2022/08/07 05:31:38;;;;;;;5.30;4.90;;;;;;;;;;5043313;28;20577;-58
2022/08/07 05:34:07;;;;;;;4.97;4.57;;;;;;;;;;5040971;28;20036;-58
2022/08/07 05:36:35;;;;;;;5.38;4.97;;;;;;;;;;5041394;28;20517;-58
2022/08/07 05:39:01;;;;;;;5.10;4.70;;;;;;;;;;5038752;28;20466;-58
2022/08/07 05:41:28;;;;;;;5.53;5.13;;;;;;;;;;5038661;28;20071;-58
2022/08/07 05:43:54;;;;;;;5.07;4.68;;;;;;;;;;5042028;28;20126;-58
2022/08/07 05:46:21;;;;;;;5.45;5.05;;;;;;;;;;5044123;28;20037;-58
2022/08/07 05:48:49;;;;;;;4.90;4.50;;;;;;;;;;5040479;28;20455;-58
2022/08/07 05:51:14;;;;;;;5.38;4.97;;;;;;;;;;5043734;28;20029;-58
2022/08/07 05:53:40;;;;;;;4.80;4.40;;;;;;;;;;5039319;28;20048;-58
2022/08/07 05:56:08;;;;;;;5.32;4.93;;;;;;;;;;5035664;28;20113;-58
2022/08/07 05:58:35;;;;;;;5.50;5.10;;;;;;;;;;5039752;28;20204;-58
2022/08/07 06:01:02;;;;;;;5.63;5.18;;;;;;;;;;5039295;28;20040;-59
2022/08/07 06:03:29;;;;;;;5.28;4.88;;;;;;;;;;5038663;28;20021;-58
2022/08/07 06:05:55;;;;;;;5.68;5.28;;;;;;;;;;5040205;28;20029;-59
2022/08/07 06:08:20;;;;;;;5.15;4.75;;;;;;;;;;5042564;28;20074;-59
2022/08/07 06:10:46;;;;;;;5.30;4.90;;;;;;;;;;5043172;28;20133;-58
2022/08/07 06:13:12;;;;;;;5.53;5.13;;;;;;;;;;5038544;28;20375;-58
2022/08/07 06:15:39;;;;;;;5.10;4.70;;;;;;;;;;5040348;28;20198;-58
2022/08/07 06:18:05;;;;;;;6.03;5.63;;;;;;;;;;5039669;28;20164;-58
2022/08/07 06:20:34;;;;;;;5.20;4.80;;;;;;;;;;5027519;28;20028;-58
2022/08/07 06:23:01;;;;;;;5.50;5.10;;;;;;;;;;5038794;28;20498;-58
2022/08/07 06:25:26;;;;;;;5.82;5.43;;;;;;;;;;5037779;28;20558;-58
2022/08/07 06:28:00;;;;;;;5.45;5.05;;;;;;;;;;5039893;28;20040;-59
2022/08/07 06:30:26;;;;;;;4.95;4.55;;;;;;;;;;5034153;28;20036;-58
2022/08/07 06:32:51;;;;;;;4.80;4.40;;;;;;;;;;5035553;28;20393;-58
2022/08/07 06:35:16;;;;;;;6.18;5.72;;;;;;;;;;5038252;28;20110;-58
2022/08/07 06:37:42;;;;;;;5.45;5.05;;;;;;;;;;5039782;28;20032;-59
2022/08/07 06:40:08;;;;;;;5.03;4.63;;;;;;;;;;5045010;28;20037;-58
2022/08/07 06:42:38;;;;;;;5.85;5.45;;;;;;;;;;5041881;28;20033;-58
2022/08/07 06:45:09;;;;;;;6.07;5.68;;;;;;;;;;5044486;28;20023;-58
2022/08/07 06:47:35;;;;;;;5.10;4.70;;;;;;;;;;5041207;28;20071;-58
2022/08/07 06:50:01;;;;;;;5.88;5.47;;;;;;;;;;5043187;28;20526;-58
2022/08/07 06:52:35;;;;;;;5.35;4.95;;;;;;;;;;5040014;28;20144;-59
2022/08/07 06:55:01;;;;;;;5.85;5.45;;;;;;;;;;5042619;28;20334;-59
2022/08/07 06:57:29;;;;;;;5.57;5.18;;;;;;;;;;5046790;28;20076;-59
2022/08/07 06:59:55;;;;;;;5.90;5.50;;;;;;;;;;5044753;28;20985;-59
2022/08/07 07:02:22;;;;;;;5.65;5.18;;;;;;;;;;5044946;28;20048;-59
2022/08/07 07:04:47;;;;;;;6.45;6.05;;;;;;;;;;5041571;28;20033;-59
2022/08/07 07:07:13;;;;;;;7.63;7.13;;;;;;;;;;5043365;28;20028;-59
2022/08/07 07:09:47;;;;;;;8.80;8.25;;;;;;;;;;5042870;28;20040;-59
2022/08/07 07:12:22;;;;;;;5.80;5.40;;;;;;;;;;5046876;28;20025;-59
2022/08/07 07:15:16;;;;;;;7.97;7.47;;;;;;;;;;5043685;28;20040;-59
2022/08/07 07:17:53;;;;;;;12.88;12.13;;;;;;;;;;5045822;28;20032;-59
2022/08/07 07:20:22;;;;;;;13.88;13.07;;;;;;;;;;5053004;28;20674;-59
2022/08/07 07:22:48;;;;;;;14.95;14.10;;;;;;;;;;5047940;28;20036;-59
2022/08/07 07:25:16;;;;;;;15.40;14.50;;;;;;;;;;5051587;28;20039;-59
2022/08/07 07:27:48;;;;;;;20.48;19.38;;;;;;;;;;5040232;28;20040;-59
2022/08/07 07:30:14;;;;;;;17.48;16.52;;;;;;;;;;5045729;28;20029;-59
2022/08/07 07:32:41;;;;;;;15.98;15.07;;;;;;;;;;5048586;28;20037;-59
2022/08/07 07:35:09;;;;;;;20.75;19.63;;;;;;;;;;5050209;28;20028;-59
2022/08/07 07:37:38;;;;;;;20.92;19.80;;;;;;;;;;5040118;28;20455;-59
2022/08/07 07:40:13;;;;;;;20.33;19.23;;;;;;;;;;5040223;28;20039;-59
2022/08/07 07:42:39;;;;;;;24.50;23.20;;;;;;;;;;5042106;28;20383;-59
2022/08/07 07:45:06;;;;;;;26.63;25.23;;;;;;;;;;5046236;28;20033;-59
2022/08/07 07:47:38;;;;;;;27.17;25.75;;;;;;;;;;5043706;28;20045;-59
2022/08/07 07:50:05;;;;;;;27.88;26.42;;;;;;;;;;5045352;28;20017;-59
2022/08/07 07:52:31;;;;;;;26.52;25.15;;;;;;;;;;5043182;28;20510;-59
2022/08/07 07:54:58;;;;;;;28.90;27.40;;;;;;;;;;5050963;28;20741;-59
2022/08/07 07:57:24;;;;;;;29.80;28.23;;;;;;;;;;5046976;28;20037;-59
2022/08/07 07:59:50;;;;;;;28.75;27.25;;;;;;;;;;5047484;28;20053;-60
2022/08/07 08:02:17;;;;;;;32.10;30.42;;;;;;;;;;5045769;28;20094;-59
2022/08/07 08:04:44;;;;;;;30.33;28.73;;;;;;;;;;5049827;28;20047;-59
2022/08/07 08:07:10;;;;;;;31.27;29.65;;;;;;;;;;5046413;28;20342;-59
2022/08/07 08:09:38;;;;;;;37.72;35.67;;;;;;;;;;5041218;28;20042;-59
2022/08/07 08:12:04;;;;;;;33.47;31.77;;;;;;;;;;5035190;28;20358;-59
2022/08/07 08:14:34;;;;;;;39.40;37.40;;;;;;;;;;5043567;28;20043;-59
2022/08/07 08:17:02;;;;;;;26.30;24.90;;;;;;;;;;5046333;28;20031;-59
2022/08/07 08:19:31;;;;;;;28.60;27.10;;;;;;;;;;5044888;28;20041;-59
2022/08/07 08:27:33;;;;;;;35.50;33.70;;;;;;;;;;5042468;28;20080;-59
2022/08/07 08:30:16;;;;;;;35.30;33.50;;;;;;;;;;5044453;28;20402;-59
2022/08/07 08:32:56;;;;;;;23.90;22.63;;;;;;;;;;5043453;28;20032;-59
2022/08/07 08:35:24;;;;;;;23.00;21.80;;;;;;;;;;5047197;28;20106;-59
2022/08/07 08:37:56;;;;;;;32.60;30.92;;;;;;;;;;5045648;28;20082;-60
2022/08/07 08:40:29;;;;;;;32.95;31.25;;;;;;;;;;5051444;28;20036;-59
2022/08/07 08:43:01;;;;;;;35.45;33.65;;;;;;;;;;5029584;28;20021;-59
2022/08/07 08:45:40;;;;;;;38.83;36.85;;;;;;;;;;5035946;28;20487;-59
2022/08/07 08:48:29;;;;;;;30.77;29.17;;;;;;;;;;5043233;28;20075;-59
2022/08/07 08:51:00;;;;;;;27.88;26.42;;;;;;;;;;5046026;28;20021;-60
2022/08/07 08:53:37;;;;;;;26.40;25.00;;;;;;;;;;5049407;28;20025;-59
2022/08/07 08:56:08;;;;;;;23.92;22.63;;;;;;;;;;5041386;28;20118;-59
2022/08/07 08:58:58;;;;;;;32.60;30.90;;;;;;;;;;5041423;28;20120;-58
2022/08/07 09:01:54;;;;;;;36.35;34.50;;;;;;;;;;5028382;28;20037;-59
2022/08/07 09:04:42;;;;;;;26.65;25.25;;;;;;;;;;5043599;28;20032;-59
2022/08/07 09:07:17;;;;;;;19.42;18.33;;;;;;;;;;5041975;28;20014;-59
2022/08/07 09:10:05;;;;;;;28.33;26.83;;;;;;;;;;5042955;28;20639;-59
2022/08/07 09:12:55;;;;;;;24.05;22.75;;;;;;;;;;5043579;28;20040;-59
2022/08/07 09:15:50;;;;;;;;;;;;;;;;;;5045623;28;20041;-59
2022/08/07 09:18:53;;;;;;;28.83;27.33;;;;;;;;;;5031305;28;19959;-59
2022/08/07 09:21:33;;;;;;;18.52;17.52;;;;;;;;;;5043238;28;20126;-60
2022/08/07 09:24:08;;;;;;;26.88;25.42;;;;;;;;;;5036222;28;20025;-59
2022/08/07 09:26:58;;;;;;;19.65;18.58;;;;;;;;;;5026036;28;20029;-59
2022/08/07 09:29:44;;;;;;;19.17;18.15;;;;;;;;;;5045143;28;20515;-59
2022/08/07 09:32:30;;;;;;;18.45;17.45;;;;;;;;;;5046180;28;20051;-59
2022/08/07 09:35:27;;;;;;;25.55;24.17;;;;;;;;;;5042534;28;20033;-59
2022/08/07 09:38:07;;;;;;;20.80;19.70;;;;;;;;;;5041324;28;20033;-59
2022/08/07 09:41:00;;;;;;;22.55;21.35;;;;;;;;;;5039915;28;20124;-59
2022/08/07 09:43:47;;;;;;;22.90;21.70;;;;;;;;;;5041770;28;20041;-59
2022/08/07 09:46:20;;;;;;;23.45;22.20;;;;;;;;;;5038649;28;20033;-59
2022/08/07 09:49:02;;;;;;;24.35;23.05;;;;;;;;;;5041123;28;20123;-59
2022/08/07 09:51:50;;;;;;;25.83;24.45;;;;;;;;;;5042644;28;20054;-58
2022/08/07 09:54:40;;;;;;;24.80;23.50;;;;;;;;;;5044465;28;20025;-59
2022/08/07 09:57:15;;;;;;;26.25;24.85;;;;;;;;;;5046524;28;20105;-59
2022/08/07 09:59:50;;;;;;;27.30;25.70;;;;;;;;;;5039676;28;20103;-60
2022/08/07 10:02:25;;;;;;;28.65;27.10;;;;;;;;;;5041305;28;20024;-58
2022/08/07 10:05:05;;;;;;;39.72;37.70;;;;;;;;;;5046442;28;20517;-59
2022/08/07 10:07:59;;;;;;;32.83;31.13;;;;;;;;;;5045747;28;20040;-59
2022/08/07 10:10:57;;;;;;;43.90;41.70;;;;;;;;;;5042516;28;20033;-58
2022/08/07 10:13:41;;;;;;;42.95;40.78;;;;;;;;;;5044869;28;20035;-58
2022/08/07 10:16:22;;;;;;;51.50;48.90;;;;;;;;;;5042005;28;20418;-59
2022/08/07 10:19:06;;;;;;;51.70;49.10;;;;;;;;;;5035453;28;20087;-59
2022/08/07 10:21:44;;;;;;;52.88;50.20;;;;;;;;;;5040572;28;20111;-59
2022/08/07 10:24:33;;;;;;;51.95;49.33;;;;;;;;;;5034788;28;20073;-58
2022/08/07 10:27:27;;;;;;;46.33;44.00;;;;;;;;;;5041855;28;20028;-58
2022/08/07 10:30:07;;;;;;;54.05;51.35;;;;;;;;;;5058219;28;20028;-58
2022/08/07 10:32:43;;;;;;;53.30;50.63;;;;;;;;;;5045839;28;20060;-58
2022/08/07 10:35:26;;;;;;;45.22;42.95;;;;;;;;;;5041350;28;20095;-58
2022/08/07 10:38:21;;;;;;;53.20;50.50;;;;;;;;;;5034843;28;20080;-58
2022/08/07 10:41:02;;;;;;;58.65;55.75;;;;;;;;;;5045755;28;20037;-58
2022/08/07 10:44:14;;;;;;;53.40;50.70;;;;;;;;;;5041124;28;20036;-58
2022/08/07 10:46:58;;;;;;;52.63;49.75;;;;;;;;;;5040000;28;20032;-59
2022/08/07 10:49:31;;;;;;;50.40;47.88;;;;;;;;;;5047372;28;20377;-59
2022/08/07 10:52:31;;;;;;;57.83;54.92;;;;;;;;;;5036801;28;20706;-58
2022/08/07 10:55:09;;;;;;;53.22;50.58;;;;;;;;;;5040175;28;20033;-58
2022/08/07 10:57:51;;;;;;;53.13;50.45;;;;;;;;;;5040881;28;20025;-59
2022/08/07 11:00:17;;;;;;;51.85;49.25;;;;;;;;;;5043166;28;20029;-58
2022/08/07 11:03:03;;;;;;;49.78;47.28;;;;;;;;;;5041973;28;20041;-58
2022/08/07 11:05:41;;;;;;;51.78;49.17;;;;;;;;;;5042667;28;20056;-58
2022/08/07 11:08:38;;;;;;;65.18;61.90;;;;;;;;;;5040162;28;20595;-58
2022/08/07 11:11:12;;;;;;;51.22;48.63;;;;;;;;;;5044964;28;20083;-58
2022/08/07 11:13:50;;;;;;;50.97;48.38;;;;;;;;;;5046011;28;20029;-57
2022/08/07 11:16:25;;;;;;;55.60;52.80;;;;;;;;;;5042316;28;20028;-57
2022/08/07 11:18:57;;;;;;;59.13;56.17;;;;;;;;;;5041406;28;20044;-57
2022/08/07 11:21:41;;;;;;;73.25;69.63;;;;;;;;;;5042318;28;20037;-57
2022/08/07 11:24:38;;;;;;;45.28;42.97;;;;;;;;;;5040198;28;20418;-57
2022/08/07 11:27:20;;;;;;;48.97;46.55;;;;;;;;;;5042431;28;20095;-59
2022/08/07 11:29:55;;;;;;;45.03;42.72;;;;;;;;;;5045703;28;20812;-57
2022/08/07 11:32:48;;;;;;;43.28;41.05;;;;;;;;;;5050520;28;20601;-57
2022/08/07 11:35:21;;;;;;;44.20;41.97;;;;;;;;;;5032170;28;20546;-58
2022/08/07 11:37:46;;;;;;;47.10;44.50;;;;;;;;;;5044420;28;20098;-58
2022/08/07 11:40:12;;;;;;;63.67;60.50;;;;;;;;;;5045830;28;20033;-58
2022/08/07 11:42:40;;;;;;;63.33;60.17;;;;;;;;;;5045810;28;20128;-58
2022/08/07 11:45:11;;;;;;;75.95;72.20;;;;;;;;;;5046040;28;20037;-59
2022/08/07 11:47:52;;;;;;;68.03;64.63;;;;;;;;;;5046304;28;20052;-59
2022/08/07 11:50:42;;;;;;;70.13;66.63;;;;;;;;;;5045474;28;20025;-58
2022/08/07 11:53:45;;;;;;;79.72;75.78;;;;;;;;;;5044964;28;20044;-58
2022/08/07 11:56:25;;;;;;;103.70;98.63;;;;;;;;;;5041341;28;20059;-58
2022/08/07 11:58:56;;;;;;;84.25;80.07;;;;;;;;;;5041361;28;20410;-59
2022/08/07 12:01:30;;;;;;;75.57;71.82;;;;;;;;;;5042292;28;20044;-60
2022/08/07 12:04:23;;;;;;;96.28;91.53;;;;;;;;;;5047065;28;20091;-59
2022/08/07 12:06:55;;;;;;;109.97;104.57;;;;;;;;;;5044531;28;20029;-60
2022/08/07 12:09:27;;;;;;;118.40;112.60;;;;;;;;;;5043101;28;20033;-59
2022/08/07 12:12:04;;;;;;;148.27;140.98;;;;;;;;;;5049121;28;20029;-60
2022/08/07 12:14:37;;;;;;;155.02;147.38;;;;;;;;;;5040241;28;20503;-60
2022/08/07 12:17:09;;;;;;;192.27;182.82;;;;;;;;;;5041339;28;20095;-60
2022/08/07 12:19:55;;;;;;;164.48;156.43;;;;;;;;;;5045529;28;20040;-61
2022/08/07 12:22:34;;;;;;;168.20;159.93;;;;;;;;;;5045589;28;20091;-60
2022/08/07 12:27:59;;;;;;;170.18;161.82;;;;;;;;;;5038929;28;20072;-59
2022/08/07 12:30:26;;;;;;;;;;;;;;;;;;5043219;28;20049;-59
2022/08/07 12:33:04;;;;;;;180.90;172.05;;;;;;;;;;5044262;28;19994;-58
2022/08/07 12:35:32;;;;;;;134.68;128.05;;;;;;;;;;5042880;28;20113;-59
2022/08/07 12:37:58;;;;;;;138.02;131.25;;;;;;;;;;5045295;28;20487;-61
2022/08/07 12:40:28;;;;;;;159.23;151.40;;;;;;;;;;5045558;28;20108;-59
2022/08/07 12:42:57;;;;;;;160.63;152.65;;;;;;;;;;5042967;28;20104;-58
2022/08/07 12:45:26;;;;;;;140.88;133.85;;;;;;;;;;5045317;28;20103;-59
2022/08/07 12:48:02;;;;;;;151.23;143.77;;;;;;;;;;5045733;28;20036;-59
2022/08/07 12:50:35;;;;;;;137.20;130.50;;;;;;;;;;5044873;28;20685;-60
2022/08/07 12:53:17;;;;;;;164.70;156.57;;;;;;;;;;5041535;28;20075;-60
2022/08/07 12:56:05;;;;;;;144.20;137.10;;;;;;;;;;5041764;28;20029;-59
2022/08/07 12:58:36;;;;;;;166.63;158.43;;;;;;;;;;5040252;28;20134;-59
2022/08/07 13:01:04;;;;;;;144.00;136.93;;;;;;;;;;5040964;28;20028;-59
2022/08/07 13:03:53;;;;;;;170.30;161.95;;;;;;;;;;5041637;28;20046;-59
2022/08/07 13:06:37;;;;;;;147.43;140.20;;;;;;;;;;5042467;28;20064;-59
2022/08/07 13:09:31;;;;;;;191.00;181.70;;;;;;;;;;5040405;28;20106;-58
2022/08/07 13:12:05;;;;;;;177.27;168.57;;;;;;;;;;5045575;28;20048;-59
2022/08/07 13:14:51;;;;;;;206.82;196.73;;;;;;;;;;5044856;28;20042;-58
2022/08/07 13:17:35;;;;;;;198.00;188.30;;;;;;;;;;5042777;28;20034;-59
2022/08/07 13:20:24;;;;;;;195.63;186.05;;;;;;;;;;5045010;28;20764;-58
2022/08/07 13:22:58;;;;;;;201.85;192.00;;;;;;;;;;5043989;28;20036;-59
2022/08/07 13:25:44;;;;;;;182.38;173.43;;;;;;;;;;5042393;28;20117;-58
2022/08/07 13:28:16;;;;;;;177.60;168.88;;;;;;;;;;5040485;28;20030;-59
2022/08/07 13:30:48;;;;;;;181.63;172.70;;;;;;;;;;5042221;28;20086;-59
2022/08/07 13:33:23;;;;;;;174.40;165.85;;;;;;;;;;5037136;28;20528;-59
2022/08/07 13:36:12;;;;;;;154.40;146.80;;;;;;;;;;5037500;28;20358;-59
2022/08/07 13:38:49;;;;;;;156.63;148.88;;;;;;;;;;5041929;28;20033;-59
2022/08/07 13:41:32;;;;;;;150.80;143.35;;;;;;;;;;5043124;28;20124;-58
2022/08/07 13:44:01;;;;;;;155.07;147.40;;;;;;;;;;5043050;28;20421;-58
2022/08/07 13:46:33;;;;;;;144.02;136.93;;;;;;;;;;5033856;28;20037;-59
2022/08/07 13:49:00;;;;;;;152.40;144.88;;;;;;;;;;5036009;28;20033;-59
2022/08/07 13:51:28;;;;;;;154.15;146.52;;;;;;;;;;5041375;28;20056;-59
2022/08/07 13:54:01;;;;;;;158.23;150.48;;;;;;;;;;5040380;28;20031;-59
2022/08/07 13:56:28;;;;;;;132.82;126.30;;;;;;;;;;5038749;28;20036;-59
2022/08/07 13:59:01;;;;;;;139.82;132.93;;;;;;;;;;5040795;28;20472;-59
2022/08/07 14:01:32;;;;;;;152.75;145.20;;;;;;;;;;5038089;28;20029;-59
2022/08/07 14:04:11;;;;;;;164.60;156.50;;;;;;;;;;5040424;28;20039;-59
2022/08/07 14:06:40;;;;;;;178.23;169.45;;;;;;;;;;5038709;28;20114;-59
2022/08/07 14:09:16;;;;;;;154.40;146.80;;;;;;;;;;5038933;28;20036;-59
2022/08/07 14:11:48;;;;;;;162.45;154.43;;;;;;;;;;5037271;28;20044;-58
2022/08/07 14:14:15;;;;;;;159.10;151.25;;;;;;;;;;5042763;28;20040;-58
2022/08/07 14:16:44;;;;;;;159.43;151.57;;;;;;;;;;5042025;28;20085;-60
2022/08/07 14:19:33;;;;;;;157.60;149.83;;;;;;;;;;5041047;28;20028;-59
2022/08/07 14:22:00;;;;;;;163.63;155.57;;;;;;;;;;5039936;28;20039;-59
2022/08/07 14:24:38;;;;;;;156.93;149.20;;;;;;;;;;5040394;28;20331;-59
2022/08/07 14:27:06;;;;;;;172.05;163.57;;;;;;;;;;5041433;28;20037;-60
2022/08/07 14:29:36;;;;;;;161.18;153.20;;;;;;;;;;5041464;28;20028;-59
2022/08/07 14:32:06;;;;;;;174.68;166.10;;;;;;;;;;5039265;28;20069;-59
2022/08/07 14:34:36;;;;;;;149.35;141.95;;;;;;;;;;5036917;28;20117;-59
2022/08/07 14:37:06;;;;;;;;;;;;;;;;;;5033416;28;20049;-59
2022/08/07 14:39:37;;;;;;;142.57;135.55;;;;;;;;;;5039003;28;19962;-59
2022/08/07 14:42:03;;;;;;;136.32;129.65;;;;;;;;;;5042924;28;20119;-60
2022/08/07 14:44:30;;;;;;;119.07;113.22;;;;;;;;;;5035869;28;20441;-59
2022/08/07 14:46:58;;;;;;;98.68;93.80;;;;;;;;;;5041309;28;20033;-59
2022/08/07 14:49:28;;;;;;;129.45;123.10;;;;;;;;;;5044250;28;20041;-59
2022/08/07 14:51:57;;;;;;;112.15;106.63;;;;;;;;;;5038703;28;20236;-59
2022/08/07 14:54:23;;;;;;;115.20;109.55;;;;;;;;;;5040839;28;20035;-59
2022/08/07 14:56:50;;;;;;;107.30;102.05;;;;;;;;;;5040530;28;20242;-59
2022/08/07 14:59:21;;;;;;;114.22;108.57;;;;;;;;;;5041190;28;20029;-59
2022/08/07 15:01:47;;;;;;;123.63;117.57;;;;;;;;;;5042239;28;20091;-59
2022/08/07 15:04:13;;;;;;;117.53;111.75;;;;;;;;;;5046537;28;20029;-59